KPOF/POF METAR and TAF weather

Enter ICAO airport designator
Station Type Date Time Source
KPOF METAR 2019/06/19 05:53 UTC NOAA

KPOF 190553Z AUTO 00000KT 7SM -RA FEW090 22/22 A2982 RMK AO2 RAB50 SLP094 P0000 60000 T02220222 10283 20222 402940206 58004


Station Type Date Time Source
KPOF Decoded METAR 2019/06/19 05:53 UTC NOAA

POPLAR BLUFF MUN AIRPORT, MO, United States (KPOF) 36-46N 090-19W 100M
Jun 19, 2019 - 01:53 AM EDT / 2019.06.19 0553 UTC
Wind: Calm:0
Visibility: 7 mile(s):0
Sky conditions: mostly clear
Weather: light rain
Precipitation last hour: A trace
Temperature: 72.0 F (22.2 C)
Dew Point: 72.0 F (22.2 C)
Relative Humidity: 100%
Pressure (altimeter): 29.82 in. Hg (1009 hPa)
Pressure tendency: 0.01 inches (0.4 hPa) lower than three hours ago
ob: KPOF 190553Z AUTO 00000KT 7SM -RA FEW090 22/22 A2982 RMK AO2 RAB50 SLP094 P0000 60000 T02220222 10283 20222 402940206 58004
cycle: 6

Station Type Date Time Source
KPOF TAF UTC NOAA

Error!

Example: see airport list